sensor_id;sensor_type;location;lat;lon;timestamp;pressure;altitude;pressure_sealevel;temperature;humidity
1652;BME280;823;49.028;8.454;2022-10-31T00:04:46;100858.25;;;16.08;61.41
1652;BME280;823;49.028;8.454;2022-10-31T00:09:46;100855.63;;;16.08;61.18
1652;BME280;823;49.028;8.454;2022-10-31T00:14:46;100856.16;;;15.97;61.33
1652;BME280;823;49.028;8.454;2022-10-31T00:19:47;100858.75;;;15.97;61.05
1652;BME280;823;49.028;8.454;2022-10-31T00:24:47;100859.00;;;15.93;61.23
1652;BME280;823;49.028;8.454;2022-10-31T00:29:47;100867.03;;;15.88;61.34
1652;BME280;823;49.028;8.454;2022-10-31T00:34:48;100866.25;;;15.86;60.97
1652;BME280;823;49.028;8.454;2022-10-31T00:39:48;100862.38;;;15.76;61.93
1652;BME280;823;49.028;8.454;2022-10-31T00:44:49;100862.72;;;15.68;61.79
1652;BME280;823;49.028;8.454;2022-10-31T00:49:49;100858.63;;;15.62;61.82
1652;BME280;823;49.028;8.454;2022-10-31T00:54:50;100855.28;;;15.60;61.66
1652;BME280;823;49.028;8.454;2022-10-31T00:59:50;100850.31;;;15.54;61.45
1652;BME280;823;49.028;8.454;2022-10-31T01:04:50;100849.06;;;15.44;61.55
1652;BME280;823;49.028;8.454;2022-10-31T01:09:51;100848.34;;;15.40;61.79
1652;BME280;823;49.028;8.454;2022-10-31T01:14:51;100859.19;;;15.31;62.52
1652;BME280;823;49.028;8.454;2022-10-31T01:19:51;100860.69;;;15.37;62.15
1652;BME280;823;49.028;8.454;2022-10-31T01:24:52;100862.59;;;15.33;61.55
1652;BME280;823;49.028;8.454;2022-10-31T01:29:52;100864.56;;;15.28;61.48
1652;BME280;823;49.028;8.454;2022-10-31T01:34:52;100858.63;;;15.05;62.21
1652;BME280;823;49.028;8.454;2022-10-31T01:39:52;100860.56;;;15.00;62.68
1652;BME280;823;49.028;8.454;2022-10-31T01:44:55;100861.09;;;15.08;62.33
1652;BME280;823;49.028;8.454;2022-10-31T01:49:59;100863.91;;;15.04;62.15
1652;BME280;823;49.028;8.454;2022-10-31T01:55:30;100862.28;;;15.01;62.30
1652;BME280;823;49.028;8.454;2022-10-31T02:00:32;100867.66;;;14.96;62.66
1652;BME280;823;49.028;8.454;2022-10-31T02:05:33;100866.97;;;14.93;62.18
1652;BME280;823;49.028;8.454;2022-10-31T02:10:35;100869.00;;;14.86;62.40
1652;BME280;823;49.028;8.454;2022-10-31T02:15:37;100864.03;;;14.80;62.69
1652;BME280;823;49.028;8.454;2022-10-31T02:20:57;100863.28;;;14.78;62.91
1652;BME280;823;49.028;8.454;2022-10-31T02:42:31;100852.53;;;14.86;62.00
1652;BME280;823;49.028;8.454;2022-10-31T02:47:37;100854.63;;;14.77;62.63
1652;BME280;823;49.028;8.454;2022-10-31T02:52:38;100854.66;;;14.76;63.16
1652;BME280;823;49.028;8.454;2022-10-31T02:57:40;100864.38;;;14.72;62.38
1652;BME280;823;49.028;8.454;2022-10-31T03:13:39;100850.91;;;14.62;61.94
1652;BME280;823;49.028;8.454;2022-10-31T03:18:56;100850.56;;;14.50;62.75
1652;BME280;823;49.028;8.454;2022-10-31T03:24:01;100852.16;;;14.52;62.89
1652;BME280;823;49.028;8.454;2022-10-31T03:29:05;100846.78;;;14.57;61.73
1652;BME280;823;49.028;8.454;2022-10-31T03:34:07;100844.19;;;14.57;62.36
1652;BME280;823;49.028;8.454;2022-10-31T03:39:13;100851.13;;;14.56;62.45
1652;BME280;823;49.028;8.454;2022-10-31T03:44:17;100842.63;;;14.53;62.57
1652;BME280;823;49.028;8.454;2022-10-31T03:49:19;100843.38;;;14.55;62.40
1652;BME280;823;49.028;8.454;2022-10-31T03:54:24;100838.53;;;14.47;63.20
1652;BME280;823;49.028;8.454;2022-10-31T03:59:33;100837.41;;;14.53;62.95
1652;BME280;823;49.028;8.454;2022-10-31T04:04:34;100832.97;;;14.55;62.79
1652;BME280;823;49.028;8.454;2022-10-31T04:09:38;100830.50;;;14.52;62.04
1652;BME280;823;49.028;8.454;2022-10-31T04:14:43;100832.44;;;14.46;62.04
1652;BME280;823;49.028;8.454;2022-10-31T04:19:44;100830.94;;;14.41;62.36
1652;BME280;823;49.028;8.454;2022-10-31T04:24:44;100838.91;;;14.38;62.15
1652;BME280;823;49.028;8.454;2022-10-31T04:29:45;100837.59;;;14.27;62.10
1652;BME280;823;49.028;8.454;2022-10-31T04:34:45;100831.41;;;14.30;61.95
1652;BME280;823;49.028;8.454;2022-10-31T04:39:45;100838.66;;;14.22;61.92
1652;BME280;823;49.028;8.454;2022-10-31T04:44:46;100831.06;;;14.17;62.09
1652;BME280;823;49.028;8.454;2022-10-31T04:49:46;100828.66;;;14.12;61.68
1652;BME280;823;49.028;8.454;2022-10-31T04:54:46;100826.13;;;14.11;61.46
1652;BME280;823;49.028;8.454;2022-10-31T04:59:47;100816.69;;;14.08;61.78
1652;BME280;823;49.028;8.454;2022-10-31T05:04:47;100813.13;;;14.11;62.21
1652;BME280;823;49.028;8.454;2022-10-31T05:09:47;100824.09;;;14.18;62.16
1652;BME280;823;49.028;8.454;2022-10-31T05:14:48;100811.06;;;14.19;62.07
1652;BME280;823;49.028;8.454;2022-10-31T05:19:48;100805.47;;;14.06;62.34
1652;BME280;823;49.028;8.454;2022-10-31T05:24:48;100810.53;;;14.11;61.57
1652;BME280;823;49.028;8.454;2022-10-31T05:29:49;100814.03;;;14.10;60.73
1652;BME280;823;49.028;8.454;2022-10-31T05:34:49;100812.28;;;13.88;61.92
1652;BME280;823;49.028;8.454;2022-10-31T05:39:49;100807.97;;;13.87;61.50
1652;BME280;823;49.028;8.454;2022-10-31T05:44:49;100800.38;;;13.83;61.25
1652;BME280;823;49.028;8.454;2022-10-31T05:49:50;100810.97;;;13.78;62.25
1652;BME280;823;49.028;8.454;2022-10-31T05:54:50;100808.66;;;13.70;62.72
1652;BME280;823;49.028;8.454;2022-10-31T05:59:51;100803.41;;;13.72;62.16
1652;BME280;823;49.028;8.454;2022-10-31T06:04:52;100807.88;;;13.68;62.19
1652;BME280;823;49.028;8.454;2022-10-31T06:09:53;100812.47;;;13.61;61.95
1652;BME280;823;49.028;8.454;2022-10-31T06:14:53;100808.97;;;13.62;62.76
1652;BME280;823;49.028;8.454;2022-10-31T06:19:53;100812.41;;;13.63;62.33
1652;BME280;823;49.028;8.454;2022-10-31T06:24:54;100798.38;;;13.67;62.11
1652;BME280;823;49.028;8.454;2022-10-31T06:29:54;100812.22;;;13.68;62.20
1652;BME280;823;49.028;8.454;2022-10-31T06:34:54;100821.53;;;13.73;62.32
1652;BME280;823;49.028;8.454;2022-10-31T06:39:55;100822.06;;;13.82;62.20
1652;BME280;823;49.028;8.454;2022-10-31T06:44:55;100814.03;;;13.88;62.27
1652;BME280;823;49.028;8.454;2022-10-31T06:49:55;100820.88;;;13.90;62.58
1652;BME280;823;49.028;8.454;2022-10-31T06:54:55;100818.81;;;13.99;62.69
1652;BME280;823;49.028;8.454;2022-10-31T06:59:56;100818.13;;;14.16;62.45
1652;BME280;823;49.028;8.454;2022-10-31T07:04:56;100817.56;;;14.29;62.61
1652;BME280;823;49.028;8.454;2022-10-31T07:09:56;100817.09;;;14.40;62.93
1652;BME280;823;49.028;8.454;2022-10-31T07:14:57;100812.94;;;14.57;62.20
1652;BME280;823;49.028;8.454;2022-10-31T07:19:57;100820.31;;;14.68;62.03
1652;BME280;823;49.028;8.454;2022-10-31T07:24:57;100821.47;;;14.81;62.09
1652;BME280;823;49.028;8.454;2022-10-31T07:29:58;100824.41;;;14.94;61.83
1652;BME280;823;49.028;8.454;2022-10-31T07:34:58;100826.56;;;15.03;62.14
1652;BME280;823;49.028;8.454;2022-10-31T07:39:58;100827.72;;;15.17;61.52
1652;BME280;823;49.028;8.454;2022-10-31T07:44:59;100829.84;;;15.27;61.87
1652;BME280;823;49.028;8.454;2022-10-31T07:49:59;100826.59;;;15.41;61.88
1652;BME280;823;49.028;8.454;2022-10-31T07:54:59;100832.16;;;15.53;61.70
1652;BME280;823;49.028;8.454;2022-10-31T08:00:00;100831.03;;;15.58;61.66
1652;BME280;823;49.028;8.454;2022-10-31T08:05:00;100823.34;;;15.74;61.29
1652;BME280;823;49.028;8.454;2022-10-31T08:10:01;100817.84;;;15.80;61.13
1652;BME280;823;49.028;8.454;2022-10-31T08:15:02;100817.88;;;15.98;61.00
1652;BME280;823;49.028;8.454;2022-10-31T08:20:04;100819.50;;;16.18;60.92
1652;BME280;823;49.028;8.454;2022-10-31T08:25:04;100806.38;;;16.37;60.69
1652;BME280;823;49.028;8.454;2022-10-31T08:30:05;100818.03;;;16.47;60.78
1652;BME280;823;49.028;8.454;2022-10-31T08:35:06;100806.81;;;16.63;60.01
1652;BME280;823;49.028;8.454;2022-10-31T08:40:06;100808.47;;;16.81;60.03
1652;BME280;823;49.028;8.454;2022-10-31T08:45:07;100800.00;;;16.94;59.66
1652;BME280;823;49.028;8.454;2022-10-31T08:50:08;100801.53;;;17.14;59.08
1652;BME280;823;49.028;8.454;2022-10-31T08:55:09;100803.00;;;17.35;58.39
1652;BME280;823;49.028;8.454;2022-10-31T09:00:10;100793.22;;;17.39;58.22
1652;BME280;823;49.028;8.454;2022-10-31T09:05:10;100786.44;;;17.67;58.09
1652;BME280;823;49.028;8.454;2022-10-31T09:10:10;100793.59;;;17.79;57.18
1652;BME280;823;49.028;8.454;2022-10-31T09:15:11;100791.97;;;17.93;56.56
1652;BME280;823;49.028;8.454;2022-10-31T09:20:11;100785.94;;;18.07;56.51
1652;BME280;823;49.028;8.454;2022-10-31T09:25:12;100787.75;;;18.20;56.04
1652;BME280;823;49.028;8.454;2022-10-31T09:30:12;100789.66;;;18.33;55.41
1652;BME280;823;49.028;8.454;2022-10-31T09:35:13;100781.06;;;18.45;55.21
1652;BME280;823;49.028;8.454;2022-10-31T09:40:13;100786.88;;;18.50;53.83
1652;BME280;823;49.028;8.454;2022-10-31T09:45:37;100781.00;;;18.61;53.75
1652;BME280;823;49.028;8.454;2022-10-31T09:50:55;100775.13;;;18.72;53.56
1652;BME280;823;49.028;8.454;2022-10-31T09:55:57;100775.28;;;18.83;53.42
1652;BME280;823;49.028;8.454;2022-10-31T10:01:00;100762.94;;;19.00;53.17
1652;BME280;823;49.028;8.454;2022-10-31T10:06:11;100765.72;;;19.11;52.71
1652;BME280;823;49.028;8.454;2022-10-31T10:32:30;100748.97;;;19.41;52.13
1652;BME280;823;49.028;8.454;2022-10-31T10:37:37;100740.63;;;19.49;51.77
1652;BME280;823;49.028;8.454;2022-10-31T10:42:38;100737.88;;;19.50;52.64
1652;BME280;823;49.028;8.454;2022-10-31T10:48:28;100744.75;;;19.66;52.22
1652;BME280;823;49.028;8.454;2022-10-31T10:53:52;100728.19;;;19.78;52.27
1652;BME280;823;49.028;8.454;2022-10-31T10:59:03;100726.97;;;19.84;52.48
1652;BME280;823;49.028;8.454;2022-10-31T11:04:21;100721.22;;;20.04;51.87
1652;BME280;823;49.028;8.454;2022-10-31T11:09:22;100709.03;;;20.03;51.40
1652;BME280;823;49.028;8.454;2022-10-31T11:14:23;100690.78;;;20.15;50.81
1652;BME280;823;49.028;8.454;2022-10-31T11:19:25;100697.53;;;20.19;51.14
1652;BME280;823;49.028;8.454;2022-10-31T11:24:39;100687.31;;;20.14;51.64
1652;BME280;823;49.028;8.454;2022-10-31T11:29:40;100670.81;;;20.25;51.64
1652;BME280;823;49.028;8.454;2022-10-31T11:34:45;100680.69;;;20.34;51.76
1652;BME280;823;49.028;8.454;2022-10-31T11:39:51;100674.69;;;20.45;51.34
1652;BME280;823;49.028;8.454;2022-10-31T11:44:54;100662.81;;;20.52;51.10
1652;BME280;823;49.028;8.454;2022-10-31T11:49:55;100663.41;;;20.56;51.05
1652;BME280;823;49.028;8.454;2022-10-31T12:00:22;100668.28;;;20.49;50.97
1652;BME280;823;49.028;8.454;2022-10-31T12:05:26;100647.03;;;20.52;50.92
1652;BME280;823;49.028;8.454;2022-10-31T12:10:42;100651.44;;;20.65;50.42
1652;BME280;823;49.028;8.454;2022-10-31T12:15:52;100641.44;;;20.70;50.80
1652;BME280;823;49.028;8.454;2022-10-31T12:26:34;100613.38;;;20.70;49.91
1652;BME280;823;49.028;8.454;2022-10-31T12:57:58;100557.25;;;21.07;50.03
1652;BME280;823;49.028;8.454;2022-10-31T13:08:36;100540.88;;;21.03;49.85
1652;BME280;823;49.028;8.454;2022-10-31T13:14:23;100550.13;;;21.20;49.86
1652;BME280;823;49.028;8.454;2022-10-31T13:19:30;100554.09;;;21.37;49.63
1652;BME280;823;49.028;8.454;2022-10-31T13:24:41;100554.69;;;21.30;49.44
1652;BME280;823;49.028;8.454;2022-10-31T13:29:54;100545.63;;;21.45;49.31
1652;BME280;823;49.028;8.454;2022-10-31T13:34:57;100523.69;;;21.57;49.09
1652;BME280;823;49.028;8.454;2022-10-31T13:40:32;100512.91;;;21.72;48.22
1652;BME280;823;49.028;8.454;2022-10-31T13:45:33;100497.34;;;21.69;48.95
1652;BME280;823;49.028;8.454;2022-10-31T13:50:33;100506.06;;;21.69;48.84
1652;BME280;823;49.028;8.454;2022-10-31T14:00:36;100495.19;;;21.63;49.20
1652;BME280;823;49.028;8.454;2022-10-31T14:05:36;100500.94;;;21.56;49.13
1652;BME280;823;49.028;8.454;2022-10-31T14:10:38;100505.94;;;21.48;49.60
1652;BME280;823;49.028;8.454;2022-10-31T14:16:18;100501.84;;;21.44;49.89
1652;BME280;823;49.028;8.454;2022-10-31T14:31:30;100497.63;;;21.07;51.51
1652;BME280;823;49.028;8.454;2022-10-31T14:36:50;100493.69;;;21.13;51.53
1652;BME280;823;49.028;8.454;2022-10-31T14:48:11;100483.41;;;21.10;52.26
1652;BME280;823;49.028;8.454;2022-10-31T14:53:23;100475.03;;;21.16;52.12
1652;BME280;823;49.028;8.454;2022-10-31T14:58:32;100471.47;;;21.17;52.58
1652;BME280;823;49.028;8.454;2022-10-31T15:03:38;100447.56;;;21.20;52.85
1652;BME280;823;49.028;8.454;2022-10-31T15:08:50;100441.78;;;21.15;53.05
1652;BME280;823;49.028;8.454;2022-10-31T15:13:58;100438.47;;;21.13;53.24
1652;BME280;823;49.028;8.454;2022-10-31T15:19:07;100428.50;;;21.05;53.85
1652;BME280;823;49.028;8.454;2022-10-31T15:24:11;100406.84;;;20.90;54.17
1652;BME280;823;49.028;8.454;2022-10-31T15:29:17;100397.53;;;20.86;54.37
1652;BME280;823;49.028;8.454;2022-10-31T15:34:38;100391.75;;;20.70;55.05
1652;BME280;823;49.028;8.454;2022-10-31T15:39:40;100373.19;;;20.60;55.18
1652;BME280;823;49.028;8.454;2022-10-31T15:44:41;100363.88;;;20.56;55.33
1652;BME280;823;49.028;8.454;2022-10-31T15:49:48;100364.34;;;20.50;55.35
1652;BME280;823;49.028;8.454;2022-10-31T15:54:54;100335.88;;;20.32;56.11
1652;BME280;823;49.028;8.454;2022-10-31T15:59:56;100344.94;;;20.28;56.13
1652;BME280;823;49.028;8.454;2022-10-31T16:05:00;100338.59;;;20.19;56.23
1652;BME280;823;49.028;8.454;2022-10-31T16:10:03;100345.47;;;20.09;56.58
1652;BME280;823;49.028;8.454;2022-10-31T16:15:04;100362.41;;;20.05;56.14
1652;BME280;823;49.028;8.454;2022-10-31T16:20:07;100391.06;;;19.71;57.54
1652;BME280;823;49.028;8.454;2022-10-31T16:25:29;100431.06;;;19.62;58.10
1652;BME280;823;49.028;8.454;2022-10-31T16:30:37;100386.75;;;19.70;57.96
1652;BME280;823;49.028;8.454;2022-10-31T16:35:39;100365.03;;;19.68;57.93
1652;BME280;823;49.028;8.454;2022-10-31T16:40:39;100388.97;;;19.63;58.16
1652;BME280;823;49.028;8.454;2022-10-31T16:45:51;100375.25;;;19.60;58.32
1652;BME280;823;49.028;8.454;2022-10-31T16:50:52;100377.00;;;19.59;58.13
1652;BME280;823;49.028;8.454;2022-10-31T16:55:57;100358.28;;;19.52;58.35
1652;BME280;823;49.028;8.454;2022-10-31T17:00:59;100318.56;;;19.33;59.30
1652;BME280;823;49.028;8.454;2022-10-31T17:06:00;100337.53;;;19.36;58.74
1652;BME280;823;49.028;8.454;2022-10-31T17:11:00;100309.03;;;19.19;59.18
1652;BME280;823;49.028;8.454;2022-10-31T17:16:02;100331.59;;;19.09;59.77
1652;BME280;823;49.028;8.454;2022-10-31T17:21:03;100336.56;;;18.87;60.67
1652;BME280;823;49.028;8.454;2022-10-31T17:26:05;100329.19;;;18.93;60.45
1652;BME280;823;49.028;8.454;2022-10-31T17:31:27;100327.81;;;18.87;60.38
1652;BME280;823;49.028;8.454;2022-10-31T17:36:27;100360.22;;;18.86;60.12
1652;BME280;823;49.028;8.454;2022-10-31T17:41:27;100347.63;;;18.78;60.47
1652;BME280;823;49.028;8.454;2022-10-31T17:46:28;100333.47;;;18.81;60.35
1652;BME280;823;49.028;8.454;2022-10-31T17:51:28;100315.47;;;18.76;60.83
1652;BME280;823;49.028;8.454;2022-10-31T17:56:29;100325.31;;;18.72;60.66
1652;BME280;823;49.028;8.454;2022-10-31T18:01:29;100355.28;;;18.55;61.17
1652;BME280;823;49.028;8.454;2022-10-31T18:06:29;100348.25;;;18.69;60.68
1652;BME280;823;49.028;8.454;2022-10-31T18:11:30;100371.56;;;18.33;61.89
1652;BME280;823;49.028;8.454;2022-10-31T18:16:31;100388.66;;;18.39;61.71
1652;BME280;823;49.028;8.454;2022-10-31T18:21:32;100392.84;;;18.42;61.33
1652;BME280;823;49.028;8.454;2022-10-31T18:26:32;100387.72;;;18.40;61.37
1652;BME280;823;49.028;8.454;2022-10-31T18:31:33;100388.66;;;18.39;61.30
1652;BME280;823;49.028;8.454;2022-10-31T18:36:33;100373.66;;;18.28;61.34
1652;BME280;823;49.028;8.454;2022-10-31T18:41:33;100389.47;;;18.27;61.54
1652;BME280;823;49.028;8.454;2022-10-31T18:46:35;100381.81;;;18.24;61.54
1652;BME280;823;49.028;8.454;2022-10-31T18:51:35;100369.66;;;18.23;61.75
1652;BME280;823;49.028;8.454;2022-10-31T18:56:35;100385.56;;;18.19;61.68
1652;BME280;823;49.028;8.454;2022-10-31T19:01:36;100388.38;;;18.16;62.14
1652;BME280;823;49.028;8.454;2022-10-31T19:06:36;100379.78;;;18.14;61.95
1652;BME280;823;49.028;8.454;2022-10-31T19:11:37;100369.31;;;18.14;62.01
1652;BME280;823;49.028;8.454;2022-10-31T19:16:38;100364.09;;;18.14;62.19
1652;BME280;823;49.028;8.454;2022-10-31T19:21:38;100365.22;;;18.10;61.89
1652;BME280;823;49.028;8.454;2022-10-31T19:26:38;100368.97;;;18.06;62.19
1652;BME280;823;49.028;8.454;2022-10-31T19:31:39;100373.66;;;18.01;61.87
1652;BME280;823;49.028;8.454;2022-10-31T19:36:39;100369.03;;;17.92;61.88
1652;BME280;823;49.028;8.454;2022-10-31T19:41:40;100395.44;;;17.87;61.85
1652;BME280;823;49.028;8.454;2022-10-31T19:46:40;100389.94;;;17.77;61.65
1652;BME280;823;49.028;8.454;2022-10-31T19:51:43;100399.03;;;17.72;61.78
1652;BME280;823;49.028;8.454;2022-10-31T19:56:43;100401.19;;;17.65;61.90
1652;BME280;823;49.028;8.454;2022-10-31T20:01:44;100408.56;;;17.58;61.59
1652;BME280;823;49.028;8.454;2022-10-31T20:06:44;100414.19;;;17.52;61.77
1652;BME280;823;49.028;8.454;2022-10-31T20:11:45;100406.81;;;17.44;61.82
1652;BME280;823;49.028;8.454;2022-10-31T20:16:45;100400.19;;;17.39;61.99
1652;BME280;823;49.028;8.454;2022-10-31T20:21:46;100402.91;;;17.37;62.29
1652;BME280;823;49.028;8.454;2022-10-31T20:26:46;100401.59;;;17.30;62.80
1652;BME280;823;49.028;8.454;2022-10-31T20:31:47;100412.63;;;17.35;62.39
1652;BME280;823;49.028;8.454;2022-10-31T20:36:47;100413.56;;;17.34;62.53
1652;BME280;823;49.028;8.454;2022-10-31T20:41:47;100399.81;;;17.30;62.62
1652;BME280;823;49.028;8.454;2022-10-31T20:46:48;100392.06;;;17.29;62.59
1652;BME280;823;49.028;8.454;2022-10-31T20:51:48;100399.34;;;17.24;62.77
1652;BME280;823;49.028;8.454;2022-10-31T20:56:48;100396.91;;;17.21;62.57
1652;BME280;823;49.028;8.454;2022-10-31T21:01:49;100400.75;;;17.15;62.64
1652;BME280;823;49.028;8.454;2022-10-31T21:06:49;100395.91;;;17.09;62.22
1652;BME280;823;49.028;8.454;2022-10-31T21:11:49;100394.56;;;17.01;62.32
1652;BME280;823;49.028;8.454;2022-10-31T21:16:50;100391.66;;;16.92;62.20
1652;BME280;823;49.028;8.454;2022-10-31T21:21:50;100383.25;;;16.87;62.20
1652;BME280;823;49.028;8.454;2022-10-31T21:26:50;100385.28;;;16.81;62.23
1652;BME280;823;49.028;8.454;2022-10-31T21:31:51;100391.06;;;16.72;62.56
1652;BME280;823;49.028;8.454;2022-10-31T21:36:51;100385.19;;;16.68;62.52
1652;BME280;823;49.028;8.454;2022-10-31T21:41:51;100381.91;;;16.65;62.90
1652;BME280;823;49.028;8.454;2022-10-31T21:46:52;100369.94;;;16.61;63.05
1652;BME280;823;49.028;8.454;2022-10-31T21:51:52;100370.88;;;16.60;63.28
1652;BME280;823;49.028;8.454;2022-10-31T21:56:53;100362.41;;;16.56;63.11
1652;BME280;823;49.028;8.454;2022-10-31T22:01:54;100372.75;;;16.58;62.89
1652;BME280;823;49.028;8.454;2022-10-31T22:06:57;100364.25;;;16.54;63.30
1652;BME280;823;49.028;8.454;2022-10-31T22:11:57;100366.75;;;16.56;63.29
1652;BME280;823;49.028;8.454;2022-10-31T22:16:58;100370.13;;;16.58;63.19
1652;BME280;823;49.028;8.454;2022-10-31T22:21:59;100373.69;;;16.57;63.11
1652;BME280;823;49.028;8.454;2022-10-31T22:27:00;100379.72;;;16.57;63.20
1652;BME280;823;49.028;8.454;2022-10-31T22:32:00;100378.91;;;16.57;62.96
1652;BME280;823;49.028;8.454;2022-10-31T22:37:02;100371.25;;;16.54;62.88
1652;BME280;823;49.028;8.454;2022-10-31T22:42:02;100356.22;;;16.57;63.16
1652;BME280;823;49.028;8.454;2022-10-31T22:47:02;100350.78;;;16.46;63.61
1652;BME280;823;49.028;8.454;2022-10-31T22:52:03;100356.41;;;16.54;63.74
1652;BME280;823;49.028;8.454;2022-10-31T22:57:04;100363.44;;;16.68;63.49
1652;BME280;823;49.028;8.454;2022-10-31T23:02:04;100360.00;;;16.67;63.46
1652;BME280;823;49.028;8.454;2022-10-31T23:07:05;100365.59;;;16.76;63.69
1652;BME280;823;49.028;8.454;2022-10-31T23:12:05;100356.84;;;16.77;63.39
1652;BME280;823;49.028;8.454;2022-10-31T23:17:24;100361.13;;;16.78;63.18
1652;BME280;823;49.028;8.454;2022-10-31T23:22:24;100362.06;;;16.77;63.28
1652;BME280;823;49.028;8.454;2022-10-31T23:27:25;100363.19;;;16.73;63.56
1652;BME280;823;49.028;8.454;2022-10-31T23:37:33;100365.13;;;16.83;63.32
1652;BME280;823;49.028;8.454;2022-10-31T23:42:34;100358.16;;;16.84;63.14
1652;BME280;823;49.028;8.454;2022-10-31T23:47:34;100352.06;;;16.83;63.17
1652;BME280;823;49.028;8.454;2022-10-31T23:52:34;100352.84;;;16.85;63.04
1652;BME280;823;49.028;8.454;2022-10-31T23:57:34;100350.31;;;16.84;63.08
